createdAt,value
2018-07-03T00:00:39.569Z,34.29
2018-07-03T00:03:08.253Z,34.54
2018-07-03T00:05:36.729Z,35.45
2018-07-03T00:08:05.166Z,36.24
2018-07-03T00:10:33.729Z,36.04
2018-07-03T00:13:02.156Z,36.55
2018-07-03T00:15:30.826Z,36.38
2018-07-03T00:17:59.419Z,36.02
2018-07-03T00:20:27.953Z,36.66
2018-07-03T00:23:03.421Z,36.48
2018-07-03T00:25:31.984Z,36.49
2018-07-03T00:28:00.784Z,36.94
2018-07-03T00:30:29.483Z,36.92
2018-07-03T00:32:57.961Z,36.64
2018-07-03T00:35:26.499Z,36.98
2018-07-03T00:37:55.068Z,36.88
2018-07-03T00:40:23.532Z,37.16
2018-07-03T00:42:52.295Z,36.61
2018-07-03T00:45:20.697Z,36.79
2018-07-03T00:47:49.189Z,36.86
2018-07-03T00:50:17.663Z,37.35
2018-07-03T00:52:46.231Z,37.49
2018-07-03T00:55:14.860Z,38.32
2018-07-03T00:57:43.279Z,38.52
2018-07-03T01:00:31.459Z,37.94
2018-07-03T01:03:00.616Z,39.16
2018-07-03T01:05:29.252Z,38.41
2018-07-03T01:07:58.158Z,38.98
2018-07-03T01:10:27.018Z,39.62
2018-07-03T01:12:56.228Z,39.51
2018-07-03T01:15:25.913Z,40.20
2018-07-03T01:17:54.512Z,39.92
2018-07-03T01:20:22.928Z,40.72
2018-07-03T01:22:51.781Z,41.50
2018-07-03T01:25:20.368Z,42.44
2018-07-03T01:27:48.976Z,43.02
2018-07-03T01:30:17.231Z,43.52
2018-07-03T01:32:45.887Z,43.38
2018-07-03T01:35:14.323Z,43.76
2018-07-03T01:37:42.743Z,44.65
2018-07-03T01:40:11.525Z,44.52
2018-07-03T01:42:40.132Z,46.24
2018-07-03T01:45:08.805Z,46.20
2018-07-03T01:47:37.414Z,46.54
2018-07-03T01:50:06.410Z,46.22
2018-07-03T01:52:34.974Z,47.35
2018-07-03T01:55:03.499Z,47.28
2018-07-03T01:57:31.769Z,47.55
2018-07-03T02:00:00.360Z,47.66
2018-07-03T02:02:28.758Z,47.87
2018-07-03T02:04:57.181Z,48.41
2018-07-03T02:07:25.748Z,47.85
2018-07-03T02:09:54.248Z,48.84
2018-07-03T02:12:22.916Z,48.89
2018-07-03T02:14:51.384Z,49.49
2018-07-03T02:17:20.043Z,48.92
2018-07-03T02:19:48.665Z,49.50
2018-07-03T02:22:17.086Z,50.07
2018-07-03T02:24:45.411Z,49.77
2018-07-03T02:27:14.065Z,50.32
2018-07-03T02:29:42.862Z,49.88
2018-07-03T02:32:11.313Z,51.15
2018-07-03T02:34:39.937Z,50.49
2018-07-03T02:37:08.462Z,50.96
2018-07-03T02:39:37.158Z,50.54
2018-07-03T02:42:05.985Z,51.60
2018-07-03T02:44:34.477Z,51.41
2018-07-03T02:47:02.905Z,51.00
2018-07-03T02:49:31.392Z,52.19
2018-07-03T02:52:00.005Z,52.26
2018-07-03T02:54:28.604Z,52.29
2018-07-03T02:56:57.156Z,52.78
2018-07-03T02:59:25.597Z,52.39
2018-07-03T03:01:54.236Z,52.71
2018-07-03T03:04:22.702Z,52.50
2018-07-03T03:06:51.107Z,52.19
2018-07-03T03:09:19.616Z,52.09
2018-07-03T03:11:48.340Z,52.83
2018-07-03T03:14:16.974Z,52.44
2018-07-03T03:16:45.328Z,53.43
2018-07-03T03:19:13.824Z,53.00
2018-07-03T03:21:42.388Z,52.81
2018-07-03T03:24:11.168Z,53.21
2018-07-03T03:26:39.770Z,52.93
2018-07-03T03:29:08.136Z,52.88
2018-07-03T03:31:36.854Z,53.43
2018-07-03T03:34:05.811Z,53.61
2018-07-03T03:36:34.222Z,53.28
2018-07-03T03:39:03.899Z,53.26
2018-07-03T03:41:32.378Z,53.92
2018-07-03T03:44:00.812Z,54.55
2018-07-03T03:46:29.550Z,53.97
2018-07-03T03:48:57.933Z,53.23
2018-07-03T03:51:26.570Z,52.22
2018-07-03T03:53:55.019Z,50.68
2018-07-03T03:56:23.320Z,50.61
2018-07-03T03:58:52.063Z,51.07
2018-07-03T04:01:20.606Z,50.87
2018-07-03T04:03:48.971Z,50.44
2018-07-03T04:06:17.373Z,50.27
2018-07-03T04:08:45.982Z,50.51
2018-07-03T04:11:14.823Z,50.45
2018-07-03T04:13:43.402Z,49.99
2018-07-03T04:16:11.648Z,50.37
2018-07-03T04:18:40.156Z,49.73
2018-07-03T04:21:08.543Z,50.02
2018-07-03T04:23:37.718Z,50.37
2018-07-03T04:26:06.632Z,50.36
2018-07-03T04:28:34.869Z,49.27
2018-07-03T04:31:03.662Z,50.57
2018-07-03T04:33:32.220Z,49.56
2018-07-03T04:36:00.876Z,49.91
2018-07-03T04:38:29.373Z,48.82
2018-07-03T04:40:58.011Z,48.68
2018-07-03T04:43:26.584Z,48.55
2018-07-03T04:45:55.289Z,48.48
2018-07-03T04:48:23.919Z,48.54
2018-07-03T04:50:52.322Z,48.10
2018-07-03T04:53:20.821Z,48.29
2018-07-03T04:55:49.309Z,47.48
2018-07-03T04:58:17.704Z,47.67
2018-07-03T05:00:46.264Z,47.85
2018-07-03T05:03:14.958Z,46.95
2018-07-03T05:05:43.416Z,48.10
2018-07-03T05:08:11.849Z,46.73
2018-07-03T05:10:40.473Z,46.26
2018-07-03T05:13:09.103Z,45.58
2018-07-03T05:15:37.655Z,46.50
2018-07-03T05:18:06.161Z,46.50
2018-07-03T05:20:34.835Z,46.10
2018-07-03T05:23:03.582Z,45.16
2018-07-03T05:25:32.200Z,44.63
2018-07-03T05:28:00.634Z,45.31
2018-07-03T05:30:29.076Z,44.76
2018-07-03T05:32:57.671Z,45.25
2018-07-03T05:35:26.141Z,45.76
2018-07-03T05:37:54.733Z,44.81
2018-07-03T05:40:23.204Z,45.52
2018-07-03T05:42:51.695Z,44.55
2018-07-03T05:45:20.267Z,44.49
2018-07-03T05:47:48.795Z,44.90
2018-07-03T05:50:17.237Z,44.05
2018-07-03T05:52:45.878Z,44.25
2018-07-03T05:55:14.400Z,44.55
2018-07-03T05:57:42.998Z,43.81
2018-07-03T06:00:11.535Z,43.46
2018-07-03T06:02:40.115Z,43.76
2018-07-03T06:05:08.572Z,43.75
2018-07-03T06:07:37.379Z,44.07
2018-07-03T06:10:06.239Z,43.52
2018-07-03T06:12:34.583Z,43.02
2018-07-03T06:15:03.363Z,42.72
2018-07-03T06:17:32.018Z,42.38
2018-07-03T06:20:00.496Z,42.94
2018-07-03T06:22:28.941Z,42.89
2018-07-03T06:24:57.206Z,41.69
2018-07-03T06:27:25.677Z,41.78
2018-07-03T06:29:54.324Z,40.56
2018-07-03T06:32:22.929Z,40.99
2018-07-03T06:34:51.812Z,40.61
2018-07-03T06:37:20.449Z,40.42
2018-07-03T06:39:48.892Z,41.31
2018-07-03T06:42:17.274Z,39.93
2018-07-03T06:44:51.490Z,39.76
2018-07-03T06:47:20.018Z,38.91
2018-07-03T06:49:48.431Z,39.30
2018-07-03T06:52:16.945Z,38.42
2018-07-03T06:54:46.352Z,40.10
2018-07-03T06:57:15.193Z,39.13
2018-07-03T06:59:43.709Z,39.10
2018-07-03T07:02:12.190Z,39.56
2018-07-03T07:04:40.801Z,39.19
2018-07-03T07:07:09.349Z,38.16
2018-07-03T07:09:37.961Z,38.56
2018-07-03T07:12:06.590Z,37.61
2018-07-03T07:14:35.084Z,37.00
2018-07-03T07:17:03.463Z,36.84
2018-07-03T07:19:32.035Z,37.99
2018-07-03T07:22:00.485Z,36.09
2018-07-03T07:24:28.957Z,37.43
2018-07-03T07:26:57.890Z,36.75
2018-07-03T07:29:26.384Z,33.60
2018-07-03T07:32:02.004Z,34.88
2018-07-03T07:34:30.875Z,33.24
2018-07-03T07:37:01.312Z,33.63
2018-07-03T07:39:31.731Z,33.78
2018-07-03T07:42:00.258Z,32.61
2018-07-03T07:44:28.956Z,32.12
2018-07-03T07:46:57.841Z,31.41
2018-07-03T07:49:26.526Z,31.42
2018-07-03T07:51:55.267Z,32.55
2018-07-03T07:54:23.862Z,31.57
2018-07-03T07:56:52.325Z,31.06
2018-07-03T07:59:21.244Z,31.33
2018-07-03T08:01:49.892Z,30.57
2018-07-03T08:04:18.441Z,30.26
2018-07-03T08:06:47.212Z,30.37
2018-07-03T08:09:15.739Z,30.37
2018-07-03T08:11:44.510Z,30.98
2018-07-03T08:14:13.032Z,30.82
2018-07-03T08:16:41.561Z,29.84
2018-07-03T08:19:10.549Z,29.98
2018-07-03T08:21:39.181Z,30.24
2018-07-03T08:24:07.864Z,30.02
2018-07-03T08:26:36.893Z,30.45
2018-07-03T08:29:05.742Z,30.84
2018-07-03T08:31:34.557Z,29.71
2018-07-03T08:34:03.267Z,29.28
2018-07-03T08:36:31.804Z,30.38
2018-07-03T08:39:00.396Z,30.43
2018-07-03T08:41:28.957Z,30.53
2018-07-03T08:43:58.082Z,29.51
2018-07-03T08:46:26.666Z,29.90
2018-07-03T08:48:55.255Z,30.29
2018-07-03T08:51:23.809Z,29.06
2018-07-03T08:53:52.310Z,30.28
2018-07-03T08:56:20.766Z,29.44
2018-07-03T08:58:50.293Z,28.62
2018-07-03T09:01:20.991Z,28.48
2018-07-03T09:03:49.836Z,29.03
2018-07-03T09:06:18.140Z,29.17
2018-07-03T09:08:46.831Z,27.90
2018-07-03T09:11:15.436Z,28.10
2018-07-03T09:13:43.878Z,28.22
2018-07-03T09:16:12.538Z,28.84
2018-07-03T09:18:41.084Z,28.70
2018-07-03T09:21:09.694Z,28.31
2018-07-03T09:23:38.332Z,28.51
2018-07-03T09:26:06.834Z,27.59
2018-07-03T09:28:35.278Z,28.13
2018-07-03T09:31:03.890Z,27.44
2018-07-03T09:33:32.400Z,27.31
2018-07-03T09:36:00.890Z,28.26
2018-07-03T09:38:29.798Z,28.19
2018-07-03T09:40:58.274Z,27.53
2018-07-03T09:43:27.275Z,28.11
2018-07-03T09:45:55.901Z,28.03
2018-07-03T09:48:24.450Z,27.63
2018-07-03T09:50:53.181Z,27.54
2018-07-03T09:53:22.001Z,27.54
2018-07-03T09:55:50.469Z,27.74
2018-07-03T09:58:18.976Z,26.76
2018-07-03T10:00:52.914Z,26.33
2018-07-03T10:03:21.552Z,28.79
2018-07-03T10:05:50.352Z,28.07
2018-07-03T10:08:18.823Z,26.54
2018-07-03T10:10:47.560Z,27.18
2018-07-03T10:13:15.992Z,26.82
2018-07-03T10:15:44.559Z,27.49
2018-07-03T10:18:13.346Z,26.81
2018-07-03T10:20:42.097Z,27.09
2018-07-03T10:23:10.553Z,27.89
2018-07-03T10:25:39.124Z,27.39
2018-07-03T10:28:07.704Z,28.19
2018-07-03T10:30:36.404Z,27.23
2018-07-03T10:33:05.130Z,27.30
2018-07-03T10:35:33.844Z,27.24
2018-07-03T10:38:02.600Z,27.09
2018-07-03T10:40:30.948Z,27.44
2018-07-03T10:42:59.376Z,28.33
2018-07-03T10:45:28.017Z,26.57
2018-07-03T10:47:56.562Z,27.24
2018-07-03T10:50:25.084Z,27.93
2018-07-03T10:52:54.109Z,27.29
2018-07-03T10:55:22.526Z,27.67
2018-07-03T10:57:50.933Z,27.49
2018-07-03T11:00:19.738Z,27.08
2018-07-03T11:02:48.319Z,26.79
2018-07-03T11:05:16.980Z,26.23
2018-07-03T11:07:45.723Z,27.04
2018-07-03T11:10:14.541Z,27.36
2018-07-03T11:12:42.955Z,26.90
2018-07-03T11:15:11.852Z,27.50
2018-07-03T11:17:40.387Z,27.67
2018-07-03T11:20:09.349Z,27.05
2018-07-03T11:22:37.951Z,27.79
2018-07-03T11:25:06.459Z,27.13
2018-07-03T11:27:34.926Z,25.98
2018-07-03T11:30:04.215Z,26.13
2018-07-03T11:32:33.110Z,27.19
2018-07-03T11:35:02.057Z,27.17
2018-07-03T11:37:30.617Z,26.63
2018-07-03T11:39:59.325Z,26.76
2018-07-03T11:42:27.720Z,25.73
2018-07-03T11:44:56.508Z,25.99
2018-07-03T11:47:25.501Z,26.51
2018-07-03T11:49:54.442Z,26.29
2018-07-03T11:52:28.708Z,26.37
2018-07-03T11:54:57.501Z,25.54
2018-07-03T11:57:25.936Z,24.87
2018-07-03T11:59:54.447Z,25.87
2018-07-03T12:02:23.038Z,26.20
2018-07-03T12:04:51.629Z,26.24
2018-07-03T12:07:19.929Z,27.28
2018-07-03T12:09:48.589Z,25.88
2018-07-03T12:12:17.411Z,25.92
2018-07-03T12:14:45.961Z,26.53
2018-07-03T12:17:14.539Z,24.78
2018-07-03T12:19:43.193Z,25.50
2018-07-03T12:22:11.740Z,25.01
2018-07-03T12:24:40.498Z,24.92
2018-07-03T12:27:08.943Z,24.67
2018-07-03T12:29:37.671Z,25.56
2018-07-03T12:32:06.586Z,25.61
2018-07-03T12:34:35.146Z,24.83
2018-07-03T12:37:03.694Z,24.47
2018-07-03T12:39:32.158Z,25.95
2018-07-03T12:42:00.898Z,26.10
2018-07-03T12:44:29.459Z,25.82
2018-07-03T12:46:58.177Z,25.19
2018-07-03T12:49:26.650Z,24.73
2018-07-03T12:51:55.320Z,24.66
2018-07-03T12:54:23.964Z,24.22
2018-07-03T12:56:52.560Z,25.35
2018-07-03T12:59:21.451Z,24.43
2018-07-03T13:01:49.943Z,23.79
2018-07-03T13:04:18.492Z,24.21
2018-07-03T13:06:46.919Z,25.06
2018-07-03T13:09:15.349Z,24.83
2018-07-03T13:11:43.828Z,23.25
2018-07-03T13:14:12.354Z,23.13
2018-07-03T13:16:40.868Z,24.52
2018-07-03T13:19:09.324Z,24.28
2018-07-03T13:21:37.836Z,23.24
2018-07-03T13:24:06.491Z,22.63
2018-07-03T13:26:35.100Z,22.86
2018-07-03T13:29:05.968Z,23.12
2018-07-03T13:31:34.478Z,22.96
2018-07-03T13:34:03.206Z,21.56
2018-07-03T13:36:31.680Z,22.55
2018-07-03T13:39:00.492Z,22.35
2018-07-03T13:41:29.224Z,22.05
2018-07-03T13:43:57.634Z,22.02
2018-07-03T13:46:26.812Z,21.81
2018-07-03T13:48:55.653Z,21.94
2018-07-03T13:51:24.650Z,22.19
2018-07-03T13:53:53.255Z,21.75
2018-07-03T13:56:21.709Z,20.64
2018-07-03T13:58:51.033Z,21.19
2018-07-03T14:01:19.598Z,20.81
2018-07-03T14:03:48.476Z,20.96
2018-07-03T14:06:17.183Z,20.99
2018-07-03T14:08:45.890Z,20.08
2018-07-03T14:11:14.701Z,19.43
2018-07-03T14:13:43.297Z,19.30
2018-07-03T14:16:11.887Z,19.81
2018-07-03T14:18:40.763Z,18.99
2018-07-03T14:21:09.627Z,19.94
2018-07-03T14:23:38.235Z,18.88
2018-07-03T14:26:06.868Z,18.50
2018-07-03T14:28:35.341Z,19.08
2018-07-03T14:31:03.921Z,19.57
2018-07-03T14:33:32.380Z,18.34
2018-07-03T14:36:00.842Z,18.49
2018-07-03T14:38:29.363Z,19.25
2018-07-03T14:40:57.968Z,19.77
2018-07-03T14:43:26.696Z,19.03
2018-07-03T14:45:55.116Z,18.66
2018-07-03T14:48:23.556Z,18.90
2018-07-03T14:50:52.165Z,19.33
2018-07-03T14:53:20.721Z,17.71
2018-07-03T14:55:49.302Z,18.52
2018-07-03T14:58:17.936Z,17.66
2018-07-03T15:00:46.705Z,17.94
2018-07-03T15:03:15.472Z,18.12
2018-07-03T15:05:44.164Z,17.71
2018-07-03T15:08:12.621Z,17.15
2018-07-03T15:10:41.129Z,16.74
2018-07-03T15:13:09.741Z,16.79
2018-07-03T15:15:38.544Z,17.40
2018-07-03T15:18:11.102Z,17.01
2018-07-03T15:20:40.117Z,17.31
2018-07-03T15:23:09.321Z,17.35
2018-07-03T15:25:38.035Z,17.06
2018-07-03T15:28:06.344Z,17.97
2018-07-03T15:30:35.033Z,17.48
2018-07-03T15:33:03.586Z,18.56
2018-07-03T15:35:32.193Z,18.45
2018-07-03T15:38:00.925Z,18.18
2018-07-03T15:40:29.569Z,19.50
2018-07-03T15:42:58.258Z,19.74
2018-07-03T15:45:27.007Z,20.20
2018-07-03T15:47:55.559Z,20.24
2018-07-03T15:50:24.349Z,21.30
2018-07-03T15:52:52.949Z,21.54
2018-07-03T15:55:21.289Z,21.43
2018-07-03T15:57:49.845Z,21.60
2018-07-03T16:00:18.359Z,20.61
2018-07-03T16:04:02.645Z,21.27
2018-07-03T16:06:54.797Z,21.08
2018-07-03T16:09:23.495Z,21.29
2018-07-03T16:11:52.275Z,22.75
2018-07-03T16:14:20.515Z,22.07
2018-07-03T16:16:49.239Z,22.33
2018-07-03T16:19:23.315Z,21.61
2018-07-03T16:21:51.824Z,21.66
2018-07-03T16:24:21.154Z,22.42
2018-07-03T16:26:49.685Z,22.99
2018-07-03T16:29:18.325Z,21.77
2018-07-03T16:31:46.892Z,22.42
2018-07-03T16:34:15.442Z,21.81
2018-07-03T16:36:44.199Z,22.66
2018-07-03T16:39:12.921Z,22.75
2018-07-03T16:41:41.567Z,22.56
2018-07-03T16:44:10.684Z,23.85
2018-07-03T16:46:39.576Z,24.23
2018-07-03T16:49:08.205Z,23.47
2018-07-03T16:51:36.587Z,23.40
2018-07-03T16:54:04.963Z,23.70
2018-07-03T16:56:33.288Z,23.65
2018-07-03T16:59:01.766Z,23.80
2018-07-03T17:01:30.456Z,24.19
2018-07-03T17:03:59.177Z,24.08
2018-07-03T17:06:27.807Z,23.51
2018-07-03T17:08:56.398Z,24.40
2018-07-03T17:11:25.041Z,24.35
2018-07-03T17:13:53.863Z,23.81
2018-07-03T17:16:22.214Z,24.24
2018-07-03T17:18:56.326Z,24.74
2018-07-03T17:21:24.964Z,28.70
2018-07-03T17:23:53.511Z,24.78
2018-07-03T17:26:22.015Z,24.79
2018-07-03T17:28:50.602Z,24.41
2018-07-03T17:31:19.307Z,24.53
2018-07-03T17:33:47.947Z,23.71
2018-07-03T17:36:16.571Z,23.30
2018-07-03T17:38:45.242Z,24.31
2018-07-03T17:41:30.685Z,24.49
2018-07-03T17:44:17.627Z,25.48
2018-07-03T17:46:46.124Z,24.34
2018-07-03T17:49:14.769Z,24.38
2018-07-03T17:51:43.793Z,24.58
2018-07-03T17:54:12.517Z,24.51
2018-07-03T17:56:41.046Z,25.17
2018-07-03T17:59:09.668Z,25.39
2018-07-03T18:01:38.123Z,25.39
2018-07-03T18:04:06.837Z,25.74
2018-07-03T18:06:35.711Z,25.99
2018-07-03T18:09:08.210Z,25.28
2018-07-03T18:11:36.742Z,26.28
2018-07-03T18:14:05.931Z,25.75
2018-07-03T18:16:34.755Z,26.12
2018-07-03T18:19:08.970Z,26.26
2018-07-03T18:21:37.692Z,25.56
2018-07-03T18:24:06.604Z,25.84
2018-07-03T18:26:35.203Z,25.80
2018-07-03T18:29:04.131Z,25.89
2018-07-03T18:31:33.592Z,26.82
2018-07-03T18:34:02.385Z,26.21
2018-07-03T18:36:30.780Z,26.66
2018-07-03T18:38:59.072Z,27.13
2018-07-03T18:41:27.736Z,27.50
2018-07-03T18:43:56.417Z,26.43
2018-07-03T18:46:25.080Z,28.26
2018-07-03T18:48:53.656Z,25.67
2018-07-03T18:51:22.572Z,26.08
2018-07-03T18:53:51.093Z,26.14
2018-07-03T18:56:19.689Z,27.39
2018-07-03T18:58:48.179Z,27.47
2018-07-03T19:01:16.718Z,26.58
2018-07-03T19:03:45.479Z,25.30
2018-07-03T19:06:13.981Z,26.20
2018-07-03T19:08:42.856Z,26.50
2018-07-03T19:11:11.635Z,26.94
2018-07-03T19:13:40.488Z,26.92
2018-07-03T19:16:09.164Z,26.63
2018-07-03T19:18:37.885Z,26.96
2018-07-03T19:21:06.605Z,26.76
2018-07-03T19:23:35.216Z,27.50
2018-07-03T19:26:03.821Z,28.16
2018-07-03T19:28:32.624Z,27.27
2018-07-03T19:31:01.136Z,27.65
2018-07-03T19:33:37.933Z,28.41
2018-07-03T19:36:06.570Z,27.77
2018-07-03T19:38:35.185Z,29.04
2018-07-03T19:41:04.111Z,29.16
2018-07-03T19:43:35.837Z,28.17
2018-07-03T19:46:05.081Z,29.45
2018-07-03T19:48:33.955Z,28.64
2018-07-03T19:51:02.225Z,28.85
2018-07-03T19:53:30.899Z,28.87
2018-07-03T19:55:59.980Z,29.22
2018-07-03T19:58:28.543Z,29.83
2018-07-03T20:00:57.144Z,29.20
2018-07-03T20:03:25.768Z,29.73
2018-07-03T20:05:54.278Z,30.28
2018-07-03T20:08:22.850Z,29.72
2018-07-03T20:10:51.674Z,31.81
2018-07-03T20:13:20.337Z,30.88
2018-07-03T20:15:49.205Z,31.79
2018-07-03T20:18:17.757Z,31.42
2018-07-03T20:20:46.391Z,32.63
2018-07-03T20:23:15.329Z,32.45
2018-07-03T20:25:43.825Z,31.77
2018-07-03T20:28:12.398Z,32.01
2018-07-03T20:30:41.074Z,30.96
2018-07-03T20:33:09.684Z,32.15
2018-07-03T20:35:38.379Z,32.31
2018-07-03T20:38:07.293Z,33.39
2018-07-03T20:41:04.151Z,31.82
2018-07-03T20:43:35.503Z,32.60
2018-07-03T20:46:04.429Z,32.91
2018-07-03T20:48:33.028Z,31.83
2018-07-03T20:51:01.708Z,31.55
2018-07-03T20:53:30.391Z,34.47
2018-07-03T20:55:59.094Z,32.27
2018-07-03T20:58:27.674Z,31.86
2018-07-03T21:00:56.212Z,32.28
2018-07-03T21:03:25.020Z,33.59
2018-07-03T21:05:53.877Z,33.36
2018-07-03T21:08:22.545Z,32.94
2018-07-03T21:10:51.017Z,32.91
2018-07-03T21:13:19.611Z,32.88
2018-07-03T21:15:48.282Z,33.44
2018-07-03T21:18:16.775Z,31.99
2018-07-03T21:20:45.464Z,33.18
2018-07-03T21:23:13.825Z,33.45
2018-07-03T21:25:42.429Z,33.63
2018-07-03T21:28:10.954Z,33.88
2018-07-03T21:30:39.613Z,33.98
2018-07-03T21:33:08.468Z,34.25
2018-07-03T21:35:37.158Z,34.85
2018-07-03T21:38:05.640Z,34.90
2018-07-03T21:40:34.301Z,34.80
2018-07-03T21:43:02.961Z,35.81
2018-07-03T21:45:31.479Z,35.12
2018-07-03T21:48:00.052Z,35.53
2018-07-03T21:50:28.722Z,36.41
2018-07-03T21:52:57.367Z,36.72
2018-07-03T21:55:25.792Z,36.44
2018-07-03T21:57:54.389Z,36.75
2018-07-03T22:00:36.229Z,37.27
2018-07-03T22:03:06.408Z,37.68
2018-07-03T22:05:35.593Z,38.77
2018-07-03T22:08:04.291Z,38.00
2018-07-03T22:10:33.313Z,38.59
2018-07-03T22:13:02.172Z,38.75
2018-07-03T22:15:30.805Z,40.17
2018-07-03T22:17:59.216Z,40.15
2018-07-03T22:20:27.860Z,42.10
2018-07-03T22:22:56.235Z,42.54
2018-07-03T22:25:24.570Z,42.20
2018-07-03T22:27:53.392Z,43.13
2018-07-03T22:30:21.924Z,44.06
2018-07-03T22:32:50.358Z,44.42
2018-07-03T22:35:18.937Z,44.61
2018-07-03T22:37:47.529Z,43.86
2018-07-03T22:40:16.012Z,44.20
2018-07-03T22:42:44.602Z,45.31
2018-07-03T22:45:13.272Z,45.43
2018-07-03T22:47:41.749Z,45.40
2018-07-03T22:50:10.332Z,45.31
2018-07-03T22:52:39.049Z,46.04
2018-07-03T22:55:07.412Z,45.77
2018-07-03T22:57:36.044Z,45.49
2018-07-03T23:00:05.355Z,45.56
2018-07-03T23:02:33.868Z,46.55
2018-07-03T23:05:02.683Z,46.14
2018-07-03T23:07:31.130Z,46.55
2018-07-03T23:09:59.800Z,47.33
2018-07-03T23:12:28.153Z,47.90
2018-07-03T23:14:57.017Z,47.78
2018-07-03T23:17:25.468Z,47.63
2018-07-03T23:19:53.907Z,48.27
2018-07-03T23:22:22.615Z,47.53
2018-07-03T23:24:51.258Z,47.86
2018-07-03T23:27:19.708Z,48.16
2018-07-03T23:29:48.283Z,48.29
2018-07-03T23:32:16.910Z,49.39
2018-07-03T23:34:45.473Z,49.36
2018-07-03T23:37:14.184Z,49.52
2018-07-03T23:39:42.560Z,50.01
2018-07-03T23:42:11.161Z,49.13
2018-07-03T23:44:39.668Z,49.60
2018-07-03T23:47:25.188Z,50.05
2018-07-03T23:50:10.721Z,49.95
2018-07-03T23:52:56.457Z,49.62
2018-07-03T23:55:41.940Z,50.74
2018-07-03T23:58:27.383Z,50.49
